Time;durP1;ratioP1;P1;durP2;ratioP2;P2;SDS_P1;SDS_P2;PMS_P1;PMS_P2;Temp;Humidity;BMP_temperature;BMP_pressure;BME280_temperature;BME280_humidity;BME280_pressure;Samples;Min_cycle;Max_cycle;Signal;HPM_P1;HPM_P2
2023/12/03 00:01:53;;;;;;;34.80;12.52;;;-3.80;99.90;;;;;;4955936;28;20173;-62
2023/12/03 00:04:19;;;;;;;31.05;12.07;;;-3.80;99.90;;;;;;4958788;28;20138;-62
2023/12/03 00:06:45;;;;;;;35.15;12.00;;;-3.90;99.90;;;;;;4954186;28;20543;-62
2023/12/03 00:09:11;;;;;;;38.60;12.20;;;-3.90;99.90;;;;;;4952008;28;20028;-62
2023/12/03 00:11:36;;;;;;;34.30;12.45;;;-3.80;99.90;;;;;;4956860;28;20042;-64
2023/12/03 00:14:02;;;;;;;29.90;11.25;;;-3.70;99.90;;;;;;4953573;28;20108;-62
2023/12/03 00:16:28;;;;;;;24.10;9.65;;;-3.60;99.90;;;;;;4960018;28;20046;-62
2023/12/03 00:18:53;;;;;;;22.80;9.00;;;-3.60;99.90;;;;;;4954720;28;20031;-62
2023/12/03 00:21:19;;;;;;;24.55;9.60;;;-3.50;99.90;;;;;;4969530;28;20722;-62
2023/12/03 00:23:44;;;;;;;26.80;9.52;;;-3.60;99.90;;;;;;4962499;28;20420;-63
2023/12/03 00:26:10;;;;;;;24.33;9.55;;;-3.70;99.90;;;;;;4966350;28;20042;-62
2023/12/03 00:28:36;;;;;;;26.77;9.40;;;-3.70;99.90;;;;;;4963251;28;20421;-62
2023/12/03 00:31:02;;;;;;;28.38;9.55;;;-3.80;99.90;;;;;;4968864;28;20391;-62
2023/12/03 00:33:27;;;;;;;25.17;10.02;;;-3.90;99.90;;;;;;4969245;28;20043;-62
2023/12/03 00:35:53;;;;;;;26.50;10.85;;;-3.80;99.90;;;;;;4968513;28;20110;-62
2023/12/03 00:38:18;;;;;;;30.88;10.57;;;-3.90;99.90;;;;;;4969397;28;20031;-62
2023/12/03 00:40:44;;;;;;;29.83;10.43;;;-3.90;99.90;;;;;;4968306;28;20049;-62
2023/12/03 00:43:10;;;;;;;27.35;10.35;;;-3.90;99.90;;;;;;4968612;28;20049;-62
2023/12/03 00:45:35;;;;;;;27.23;11.02;;;-3.90;99.90;;;;;;4969826;28;20058;-62
2023/12/03 00:48:01;;;;;;;32.08;11.70;;;-3.90;99.90;;;;;;4968536;28;20520;-62
2023/12/03 00:50:26;;;;;;;29.80;11.73;;;-3.90;99.90;;;;;;4969288;28;20042;-62
2023/12/03 00:52:52;;;;;;;32.83;11.85;;;-3.80;99.90;;;;;;4968391;28;20089;-63
2023/12/03 00:55:18;;;;;;;33.72;11.50;;;-3.80;99.90;;;;;;4970442;28;20483;-62
2023/12/03 00:57:44;;;;;;;32.88;12.95;;;-3.80;99.90;;;;;;4968499;28;20098;-62
2023/12/03 01:00:10;;;;;;;31.50;12.15;;;-3.80;99.90;;;;;;4970830;28;20031;-62
2023/12/03 01:02:35;;;;;;;33.30;12.85;;;-3.80;99.90;;;;;;4971795;28;20635;-62
2023/12/03 01:05:01;;;;;;;35.35;13.00;;;-3.80;99.90;;;;;;4972512;28;20030;-62
2023/12/03 01:07:27;;;;;;;36.35;13.43;;;-3.90;99.90;;;;;;4972859;28;20073;-62
2023/12/03 01:09:53;;;;;;;38.20;12.65;;;-3.80;99.90;;;;;;4972172;28;20046;-62
2023/12/03 01:12:18;;;;;;;38.35;13.23;;;-3.90;99.90;;;;;;4972108;28;20042;-62
2023/12/03 01:14:44;;;;;;;33.38;12.38;;;-3.80;99.90;;;;;;4971732;28;20034;-63
2023/12/03 01:17:09;;;;;;;37.30;13.43;;;-3.80;99.90;;;;;;4972679;28;20037;-62
2023/12/03 01:19:35;;;;;;;37.22;13.63;;;-3.80;99.90;;;;;;4972335;28;20031;-62
2023/12/03 01:22:01;;;;;;;38.15;13.00;;;-3.80;99.90;;;;;;4954183;28;20038;-63
2023/12/03 01:24:26;;;;;;;35.90;13.38;;;-3.80;99.90;;;;;;4972647;28;20059;-62
2023/12/03 01:26:52;;;;;;;34.13;12.38;;;-3.70;99.90;;;;;;4975222;28;20033;-62
2023/12/03 01:29:18;;;;;;;36.88;12.82;;;-3.60;99.90;;;;;;4977761;28;20671;-62
2023/12/03 01:31:44;;;;;;;41.20;13.48;;;-3.60;99.90;;;;;;4971991;28;20424;-64
2023/12/03 01:34:09;;;;;;;33.95;12.77;;;-3.60;99.90;;;;;;4972305;28;20543;-62
2023/12/03 01:36:35;;;;;;;35.15;12.65;;;-3.70;99.90;;;;;;4972357;28;20035;-62
2023/12/03 01:39:00;;;;;;;30.50;11.48;;;-3.70;99.90;;;;;;4971694;28;20515;-62
2023/12/03 01:41:26;;;;;;;38.53;12.35;;;-3.70;99.90;;;;;;4972232;28;20050;-62
2023/12/03 01:43:53;;;;;;;31.88;11.98;;;-3.70;99.90;;;;;;4971314;28;20035;-62
2023/12/03 01:46:20;;;;;;;31.35;12.25;;;-3.80;99.90;;;;;;4971644;28;20034;-62
2023/12/03 01:48:47;;;;;;;32.28;12.70;;;-3.80;99.90;;;;;;4971175;28;20035;-64
2023/12/03 01:51:14;;;;;;;34.88;12.15;;;-3.70;99.90;;;;;;4972485;28;20027;-62
2023/12/03 01:53:42;;;;;;;33.42;11.68;;;-3.80;99.90;;;;;;4972143;28;20037;-63
2023/12/03 01:56:09;;;;;;;31.38;11.88;;;-3.70;99.90;;;;;;4971193;28;20053;-62
2023/12/03 01:58:35;;;;;;;34.97;12.57;;;-3.60;99.90;;;;;;4972195;28;20043;-62
2023/12/03 02:01:01;;;;;;;31.25;13.27;;;-3.50;99.90;;;;;;4970690;28;20042;-63
2023/12/03 02:03:26;;;;;;;35.38;12.52;;;-3.40;99.90;;;;;;4971694;28;20043;-63
2023/12/03 02:06:10;;;;;;;32.40;12.13;;;-3.40;99.90;;;;;;4971046;28;20399;-62
2023/12/03 02:08:36;;;;;;;30.77;11.57;;;-3.40;99.90;;;;;;4971673;28;20399;-62
2023/12/03 02:11:04;;;;;;;32.63;12.00;;;-3.50;99.90;;;;;;4970119;28;20035;-62
2023/12/03 02:13:32;;;;;;;34.08;13.23;;;-3.50;99.90;;;;;;4971563;28;20809;-62
2023/12/03 02:15:58;;;;;;;33.58;11.85;;;-3.60;99.90;;;;;;4970809;28;20039;-62
2023/12/03 02:18:25;;;;;;;36.00;13.32;;;-3.60;99.90;;;;;;4985835;28;20031;-62
2023/12/03 02:20:51;;;;;;;32.35;13.13;;;-3.60;99.90;;;;;;4970607;28;20031;-62
2023/12/03 02:23:17;;;;;;;35.58;12.75;;;-3.60;99.90;;;;;;4971405;28;20085;-62
2023/12/03 02:25:42;;;;;;;34.10;11.90;;;-3.70;99.90;;;;;;4971629;28;20122;-62
2023/12/03 02:28:08;;;;;;;31.85;12.32;;;-3.80;99.90;;;;;;4967692;28;20030;-62
2023/12/03 02:30:34;;;;;;;29.42;12.00;;;-3.80;99.90;;;;;;4971248;28;20067;-62
2023/12/03 02:33:00;;;;;;;32.47;12.48;;;-3.80;99.90;;;;;;4970653;28;20088;-62
2023/12/03 02:35:25;;;;;;;36.47;12.63;;;-3.80;99.90;;;;;;4971353;28;20031;-62
2023/12/03 02:37:51;;;;;;;32.40;12.13;;;-3.80;99.90;;;;;;4970643;28;20060;-62
2023/12/03 02:40:17;;;;;;;33.63;12.98;;;-3.80;99.90;;;;;;4970999;28;20092;-62
2023/12/03 02:42:42;;;;;;;37.30;13.43;;;-3.80;99.90;;;;;;4966949;28;20138;-62
2023/12/03 02:45:09;;;;;;;37.55;12.55;;;-3.80;99.90;;;;;;4970301;28;20134;-62
2023/12/03 02:47:35;;;;;;;35.58;12.48;;;-3.80;99.90;;;;;;4971007;28;20039;-62
2023/12/03 02:50:01;;;;;;;37.70;12.88;;;-3.80;99.90;;;;;;4970188;28;20387;-63
2023/12/03 02:52:27;;;;;;;38.15;13.35;;;-3.80;99.90;;;;;;4970636;28;20034;-62
2023/12/03 02:54:53;;;;;;;35.40;13.18;;;-3.80;99.90;;;;;;4970253;28;20038;-63
2023/12/03 02:57:19;;;;;;;39.50;13.77;;;-3.80;99.90;;;;;;4971505;28;20409;-62
2023/12/03 02:59:44;;;;;;;36.17;13.43;;;-3.80;99.90;;;;;;4970718;28;20070;-62
2023/12/03 03:02:10;;;;;;;37.92;13.05;;;-3.80;99.90;;;;;;4950535;28;20047;-62
2023/12/03 03:04:36;;;;;;;33.20;13.60;;;-3.80;99.90;;;;;;4968221;28;20043;-62
2023/12/03 03:07:01;;;;;;;31.95;12.75;;;-3.70;99.90;;;;;;4970001;28;20039;-62
2023/12/03 03:09:27;;;;;;;39.80;14.20;;;-3.60;99.90;;;;;;4981182;28;20369;-62
2023/12/03 03:11:54;;;;;;;40.72;14.35;;;-3.60;99.90;;;;;;4952798;28;20451;-62
2023/12/03 03:14:20;;;;;;;41.20;13.13;;;-3.60;99.90;;;;;;4968727;28;20395;-63
2023/12/03 03:16:46;;;;;;;34.33;12.38;;;-3.70;99.90;;;;;;4952185;28;20039;-63
2023/12/03 03:19:11;;;;;;;37.13;12.88;;;-3.70;99.90;;;;;;4960173;28;20027;-62
2023/12/03 03:21:38;;;;;;;36.75;13.20;;;-3.70;99.90;;;;;;4970715;28;20058;-62
2023/12/03 03:24:04;;;;;;;38.53;12.82;;;-3.80;99.90;;;;;;4968842;28;20035;-62
2023/12/03 03:26:30;;;;;;;35.25;12.82;;;-3.80;99.90;;;;;;4970514;28;20097;-62
2023/12/03 03:28:55;;;;;;;37.20;13.50;;;-3.80;99.90;;;;;;4969620;28;20467;-62
2023/12/03 03:31:21;;;;;;;32.88;12.73;;;-3.80;99.90;;;;;;4969758;28;20088;-63
2023/12/03 03:33:46;;;;;;;34.15;11.88;;;-3.80;99.90;;;;;;4970432;28;20037;-62
2023/12/03 03:36:13;;;;;;;37.70;12.68;;;-3.80;99.90;;;;;;4969320;28;20035;-62
2023/12/03 03:38:40;;;;;;;42.67;13.38;;;-3.90;99.90;;;;;;4969743;28;20476;-62
2023/12/03 03:41:06;;;;;;;36.60;12.18;;;-3.90;99.90;;;;;;4969387;28;20050;-62
2023/12/03 03:43:31;;;;;;;35.92;13.10;;;-3.90;99.90;;;;;;4970272;28;20474;-62
2023/12/03 03:45:57;;;;;;;42.63;13.48;;;-3.90;99.90;;;;;;4968986;28;20122;-63
2023/12/03 03:48:24;;;;;;;39.00;13.55;;;-3.90;99.90;;;;;;4951860;28;20036;-62
2023/12/03 03:50:49;;;;;;;33.20;12.27;;;-3.90;99.90;;;;;;4952430;28;20058;-63
2023/12/03 03:53:15;;;;;;;41.22;12.50;;;-3.90;99.90;;;;;;4969338;28;20106;-63
2023/12/03 03:55:40;;;;;;;34.38;11.95;;;-3.90;99.90;;;;;;4969317;28;20039;-62
2023/12/03 03:58:06;;;;;;;34.15;12.30;;;-3.90;99.90;;;;;;4969346;28;20027;-62
2023/12/03 04:00:32;;;;;;;33.15;12.27;;;-3.80;99.90;;;;;;4969651;28;20022;-62
2023/12/03 04:02:57;;;;;;;34.10;11.68;;;-3.90;99.90;;;;;;4964693;28;20499;-62
2023/12/03 04:05:23;;;;;;;37.75;13.07;;;-3.80;99.90;;;;;;4969303;28;20039;-62
2023/12/03 04:07:49;;;;;;;35.13;12.40;;;-3.90;99.90;;;;;;4936422;28;20041;-62
2023/12/03 04:10:15;;;;;;;39.65;13.30;;;-3.90;99.90;;;;;;4968743;28;20043;-62
2023/12/03 04:12:41;;;;;;;35.10;12.50;;;-3.90;99.90;;;;;;4969306;28;20062;-62
2023/12/03 04:15:07;;;;;;;36.60;12.85;;;-3.90;99.90;;;;;;4968571;28;20046;-62
2023/12/03 04:17:33;;;;;;;39.63;13.77;;;-3.90;99.90;;;;;;4955900;28;20137;-62
2023/12/03 04:19:59;;;;;;;37.25;12.70;;;-3.90;99.90;;;;;;4968685;28;20122;-62
2023/12/03 04:22:24;;;;;;;37.45;13.18;;;-3.90;99.90;;;;;;4969800;28;20034;-62
2023/12/03 04:24:50;;;;;;;40.83;13.52;;;-3.90;99.90;;;;;;4969383;28;20050;-63
2023/12/03 04:27:16;;;;;;;36.42;12.70;;;-3.90;99.90;;;;;;4969181;28;20105;-62
2023/12/03 04:29:42;;;;;;;37.78;13.05;;;-3.90;99.90;;;;;;4969476;28;20039;-63
2023/12/03 04:32:08;;;;;;;33.88;11.98;;;-3.80;99.90;;;;;;4968183;28;20046;-62
2023/12/03 04:34:34;;;;;;;37.72;13.27;;;-3.90;99.90;;;;;;4968407;28;20023;-62
2023/12/03 04:36:59;;;;;;;39.53;13.88;;;-3.90;99.90;;;;;;4968715;28;20495;-62
2023/12/03 04:39:25;;;;;;;41.47;14.00;;;-3.90;99.90;;;;;;4969119;28;20042;-62
2023/12/03 04:41:50;;;;;;;36.42;13.05;;;-3.90;99.90;;;;;;4951825;28;20039;-62
2023/12/03 04:44:16;;;;;;;39.83;13.73;;;-3.80;99.90;;;;;;4968901;28;20483;-62
2023/12/03 04:46:42;;;;;;;39.67;13.20;;;-3.80;99.90;;;;;;4966991;28;20101;-62
2023/12/03 04:49:07;;;;;;;38.90;12.95;;;-3.80;99.90;;;;;;4968537;28;20162;-62
2023/12/03 04:51:33;;;;;;;33.75;13.10;;;-3.80;99.90;;;;;;4969262;28;20041;-62
2023/12/03 04:53:59;;;;;;;40.63;13.27;;;-3.80;99.90;;;;;;4968421;28;20118;-62
2023/12/03 04:56:25;;;;;;;38.42;13.63;;;-3.90;99.90;;;;;;4969084;28;20074;-62
2023/12/03 04:58:51;;;;;;;36.22;12.65;;;-3.80;99.90;;;;;;4968784;28;20030;-62
2023/12/03 05:01:17;;;;;;;43.47;14.50;;;-3.80;99.90;;;;;;4968160;28;20181;-62
2023/12/03 05:03:43;;;;;;;39.03;13.38;;;-3.80;99.90;;;;;;4963670;28;20066;-62
2023/12/03 05:06:08;;;;;;;35.92;12.68;;;-3.80;99.90;;;;;;4956377;28;20063;-61
2023/12/03 05:08:34;;;;;;;44.33;13.90;;;-3.80;99.90;;;;;;4941811;28;20599;-62
2023/12/03 05:11:04;;;;;;;42.83;14.38;;;-3.70;99.90;;;;;;4968714;28;20029;-62
2023/12/03 05:13:30;;;;;;;37.25;13.50;;;-3.80;99.90;;;;;;4968630;28;20551;-62
2023/12/03 05:15:56;;;;;;;44.22;14.35;;;-3.80;99.90;;;;;;4967456;28;20491;-64
2023/12/03 05:18:22;;;;;;;44.05;13.98;;;-3.80;99.90;;;;;;4968274;28;20023;-62
2023/12/03 05:20:48;;;;;;;42.00;14.20;;;-3.80;99.90;;;;;;4968898;28;20369;-62
2023/12/03 05:23:14;;;;;;;42.30;14.50;;;-3.80;99.90;;;;;;4962204;28;20981;-62
2023/12/03 05:25:40;;;;;;;38.40;13.57;;;-3.80;99.90;;;;;;4967919;28;20099;-62
2023/12/03 05:28:06;;;;;;;40.47;14.65;;;-3.80;99.90;;;;;;4950947;28;20026;-62
2023/12/03 05:30:31;;;;;;;41.60;14.60;;;-3.80;99.90;;;;;;4967933;28;20390;-62
2023/12/03 05:32:58;;;;;;;43.45;14.52;;;-3.80;99.90;;;;;;4960734;28;20035;-63
2023/12/03 05:35:24;;;;;;;39.05;14.32;;;-3.80;99.90;;;;;;4954439;28;20031;-62
2023/12/03 05:37:50;;;;;;;39.70;13.55;;;-3.80;99.90;;;;;;4952899;28;20035;-62
2023/12/03 05:40:16;;;;;;;42.45;14.73;;;-3.80;99.90;;;;;;4966553;28;20176;-62
2023/12/03 05:42:41;;;;;;;39.90;14.02;;;-3.80;99.90;;;;;;4969041;28;20038;-62
2023/12/03 05:45:08;;;;;;;36.85;13.27;;;-3.70;99.90;;;;;;4966167;28;20046;-62
2023/12/03 05:47:34;;;;;;;39.75;13.13;;;-3.60;99.90;;;;;;4952219;28;20041;-62
2023/12/03 05:50:01;;;;;;;38.90;13.77;;;-3.60;99.90;;;;;;4969690;28;20039;-64
2023/12/03 05:52:29;;;;;;;39.70;13.57;;;-3.50;99.90;;;;;;4952997;28;20035;-62
2023/12/03 05:54:55;;;;;;;40.53;13.48;;;-3.60;99.90;;;;;;4960513;28;20045;-62
2023/12/03 05:57:21;;;;;;;36.40;13.30;;;-3.60;99.90;;;;;;4962441;28;20030;-63
2023/12/03 05:59:46;;;;;;;38.33;13.63;;;-3.70;99.90;;;;;;4956889;28;20496;-62
2023/12/03 06:02:13;;;;;;;37.50;12.80;;;-3.70;99.90;;;;;;4952504;28;20095;-62
2023/12/03 06:04:39;;;;;;;37.25;13.20;;;-3.80;99.90;;;;;;4952741;28;20824;-62
2023/12/03 06:07:05;;;;;;;36.55;13.10;;;-3.80;99.90;;;;;;4959495;28;20113;-62
2023/12/03 06:09:31;;;;;;;37.72;13.55;;;-3.70;99.90;;;;;;4956877;28;20027;-62
2023/12/03 06:11:56;;;;;;;35.50;13.65;;;-3.70;99.90;;;;;;4963655;28;20086;-62
2023/12/03 06:14:22;;;;;;;36.85;13.38;;;-3.70;99.90;;;;;;4971402;28;20030;-62
2023/12/03 06:16:48;;;;;;;37.28;13.02;;;-3.60;99.90;;;;;;4959031;28;20046;-62
2023/12/03 06:19:19;;;;;;;36.75;12.70;;;-3.50;99.90;;;;;;4950526;28;20031;-62
2023/12/03 06:21:45;;;;;;;34.92;13.35;;;-3.50;99.90;;;;;;4953059;28;20444;-62
2023/12/03 06:24:11;;;;;;;37.17;13.00;;;-3.50;99.90;;;;;;4965043;28;20045;-62
2023/12/03 06:26:36;;;;;;;36.60;13.23;;;-3.50;99.90;;;;;;4969771;28;20043;-62
2023/12/03 06:29:02;;;;;;;41.15;13.90;;;-3.50;99.90;;;;;;4969841;28;20097;-65
2023/12/03 06:31:27;;;;;;;41.38;13.02;;;-3.60;99.90;;;;;;4970841;28;20460;-62
2023/12/03 06:33:53;;;;;;;37.55;13.98;;;-3.50;99.90;;;;;;4971212;28;20030;-63
2023/12/03 06:36:19;;;;;;;35.15;13.23;;;-3.50;99.90;;;;;;4967418;28;20119;-62
2023/12/03 06:38:44;;;;;;;38.75;12.40;;;-3.40;99.90;;;;;;4956613;28;20496;-63
2023/12/03 06:41:10;;;;;;;37.28;13.75;;;-3.40;99.90;;;;;;4970682;28;20045;-62
2023/12/03 06:43:36;;;;;;;33.95;12.88;;;-3.40;99.90;;;;;;4971285;28;20128;-62
2023/12/03 06:46:01;;;;;;;33.97;13.57;;;-3.30;99.90;;;;;;4971706;28;20468;-67
2023/12/03 06:48:27;;;;;;;34.70;13.07;;;-3.40;99.90;;;;;;4953784;28;20031;-64
2023/12/03 06:50:53;;;;;;;35.72;13.82;;;-3.40;99.90;;;;;;4974929;28;20057;-64
2023/12/03 06:53:19;;;;;;;36.20;12.80;;;-3.40;99.90;;;;;;4978362;28;20050;-65
2023/12/03 06:55:45;;;;;;;33.35;12.73;;;-3.50;99.90;;;;;;4971058;28;20403;-65
2023/12/03 06:58:11;;;;;;;33.55;11.93;;;-3.50;99.90;;;;;;4970440;28;20035;-65
2023/12/03 07:00:37;;;;;;;35.65;12.80;;;-3.60;99.90;;;;;;4960075;28;20438;-64
2023/12/03 07:03:03;;;;;;;35.88;13.60;;;-3.70;99.90;;;;;;4986895;28;20047;-68
2023/12/03 07:05:28;;;;;;;35.97;12.98;;;-3.70;99.90;;;;;;4962631;28;20489;-64
2023/12/03 07:07:54;;;;;;;39.60;13.50;;;-3.80;99.90;;;;;;4979837;28;20039;-64
2023/12/03 07:10:20;;;;;;;39.00;12.25;;;-3.80;99.90;;;;;;4970906;28;20837;-65
2023/12/03 07:12:45;;;;;;;37.85;12.63;;;-3.80;99.90;;;;;;4972064;28;20065;-64
2023/12/03 07:15:11;;;;;;;33.75;12.00;;;-3.80;99.90;;;;;;4969980;28;20050;-64
2023/12/03 07:17:39;;;;;;;37.60;12.80;;;-3.80;99.90;;;;;;4973387;28;20395;-65
2023/12/03 07:20:06;;;;;;;37.33;13.10;;;-3.80;99.90;;;;;;4974012;28;20085;-67
2023/12/03 07:22:32;;;;;;;36.42;12.70;;;-3.80;99.90;;;;;;4970361;28;20046;-65
2023/12/03 07:24:57;;;;;;;34.63;12.25;;;-3.80;99.90;;;;;;4970943;28;20495;-64
2023/12/03 07:27:23;;;;;;;34.13;12.60;;;-3.90;99.90;;;;;;4969667;28;20030;-64
2023/12/03 07:29:54;;;;;;;38.35;13.60;;;-3.80;99.90;;;;;;4976061;28;20030;-65
2023/12/03 07:32:21;;;;;;;39.42;13.18;;;-4.00;99.90;;;;;;4979118;28;20093;-65
2023/12/03 07:34:47;;;;;;;33.05;11.88;;;-4.00;99.90;;;;;;4971175;28;20037;-64
2023/12/03 07:37:12;;;;;;;37.08;12.55;;;-4.10;99.90;;;;;;4972155;28;20030;-65
2023/12/03 07:39:39;;;;;;;40.17;13.43;;;-4.10;99.90;;;;;;4983581;28;20069;-64
2023/12/03 07:42:04;;;;;;;35.38;11.93;;;-4.10;99.90;;;;;;4989588;28;20042;-66
2023/12/03 07:44:30;;;;;;;37.92;12.52;;;-4.10;99.90;;;;;;4980238;28;20498;-64
2023/12/03 07:46:56;;;;;;;34.78;12.15;;;-4.00;99.90;;;;;;4974757;28;20490;-64
2023/12/03 07:49:22;;;;;;;34.38;12.85;;;-3.90;99.90;;;;;;4968953;28;20034;-64
2023/12/03 07:51:47;;;;;;;38.33;13.45;;;-3.90;99.90;;;;;;4970163;28;20082;-64
2023/12/03 07:54:13;;;;;;;38.72;13.68;;;-3.90;99.90;;;;;;4968887;28;20424;-65
2023/12/03 07:56:40;;;;;;;37.67;13.13;;;-3.90;99.90;;;;;;4969795;28;20114;-64
2023/12/03 07:59:06;;;;;;;37.13;13.38;;;-3.80;99.90;;;;;;4969664;28;20042;-67
2023/12/03 08:01:32;;;;;;;37.35;13.18;;;-3.80;99.90;;;;;;4969625;28;20472;-64
2023/12/03 08:03:58;;;;;;;38.22;13.38;;;-3.80;99.90;;;;;;4952311;28;20046;-64
2023/12/03 08:06:25;;;;;;;39.30;13.55;;;-3.90;99.90;;;;;;4953230;28;20089;-63
2023/12/03 08:08:52;;;;;;;37.95;12.80;;;-4.00;99.90;;;;;;4977646;28;20033;-64
2023/12/03 08:11:17;;;;;;;41.08;13.75;;;-4.10;99.90;;;;;;4979063;28;20039;-64
2023/12/03 08:13:44;;;;;;;40.92;14.40;;;-4.10;99.90;;;;;;4973785;28;20033;-64
2023/12/03 08:16:09;;;;;;;34.10;12.45;;;-4.20;99.90;;;;;;4971122;28;20035;-65
2023/12/03 08:18:35;;;;;;;42.63;14.48;;;-4.10;99.90;;;;;;4951023;28;20041;-64
2023/12/03 08:21:01;;;;;;;41.70;14.02;;;-4.20;99.90;;;;;;4976509;28;20030;-64
2023/12/03 08:23:26;;;;;;;46.17;14.93;;;-4.20;99.90;;;;;;4974566;28;20019;-63
2023/12/03 08:25:52;;;;;;;39.88;13.73;;;-4.20;99.90;;;;;;4973658;28;20156;-64
2023/12/03 08:28:18;;;;;;;38.22;13.90;;;-4.10;99.90;;;;;;4972814;28;20022;-64
2023/12/03 08:30:44;;;;;;;38.47;13.77;;;-4.10;99.90;;;;;;4969000;28;20041;-64
2023/12/03 08:33:10;;;;;;;41.78;14.00;;;-4.00;99.90;;;;;;4966085;28;20034;-67
2023/12/03 08:35:35;;;;;;;39.83;13.52;;;-3.90;99.90;;;;;;4969326;28;20034;-64
2023/12/03 08:38:01;;;;;;;35.88;13.05;;;-3.70;99.90;;;;;;4969840;28;20331;-64
2023/12/03 08:40:28;;;;;;;39.22;13.52;;;-3.60;99.90;;;;;;4968576;28;20162;-63
2023/12/03 08:42:54;;;;;;;33.42;12.45;;;-3.50;99.90;;;;;;4969760;28;20039;-61
2023/12/03 08:45:19;;;;;;;32.63;12.63;;;-3.50;99.90;;;;;;4968394;28;20034;-63
2023/12/03 08:47:45;;;;;;;32.45;12.85;;;-3.40;99.90;;;;;;4968163;28;20538;-62
2023/12/03 08:50:10;;;;;;;35.08;12.95;;;-3.30;99.90;;;;;;4968353;28;20030;-64
2023/12/03 08:52:36;;;;;;;37.58;12.85;;;-3.20;99.90;;;;;;4960529;28;20134;-62
2023/12/03 08:55:03;;;;;;;36.47;12.88;;;-3.30;99.90;;;;;;4950132;29;20178;-62
2023/12/03 08:57:29;;;;;;;40.85;13.43;;;-3.50;99.90;;;;;;4973042;28;20668;-62
2023/12/03 08:59:55;;;;;;;33.50;12.25;;;-3.50;99.90;;;;;;4969061;28;20039;-62
2023/12/03 09:02:21;;;;;;;36.40;13.25;;;-3.50;99.90;;;;;;4969307;28;20062;-62
2023/12/03 09:04:47;;;;;;;35.17;13.18;;;-3.40;99.90;;;;;;4974396;28;20031;-62
2023/12/03 09:07:13;;;;;;;32.05;12.60;;;-3.40;99.90;;;;;;4968220;28;20035;-64
2023/12/03 09:09:39;;;;;;;37.30;13.15;;;-3.50;99.90;;;;;;4969055;28;20037;-62
2023/12/03 09:12:05;;;;;;;33.55;12.38;;;-3.60;99.90;;;;;;4968312;28;20603;-63
2023/12/03 09:14:31;;;;;;;32.42;12.20;;;-3.50;99.90;;;;;;4967217;28;20034;-62
2023/12/03 09:16:58;;;;;;;35.38;12.25;;;-3.40;99.90;;;;;;4980977;28;20045;-62
2023/12/03 09:19:24;;;;;;;36.05;12.75;;;-3.50;99.90;;;;;;4988157;28;20030;-61
2023/12/03 09:21:50;;;;;;;33.22;12.48;;;-3.40;99.90;;;;;;4975048;28;20050;-62
2023/12/03 09:24:16;;;;;;;36.40;12.52;;;-3.40;99.90;;;;;;4972068;28;20038;-62
2023/12/03 09:26:44;;;;;;;35.28;12.13;;;-3.40;99.90;;;;;;4973100;28;20725;-62
2023/12/03 09:29:13;;;;;;;35.80;12.75;;;-3.40;99.90;;;;;;4955996;28;20035;-63
2023/12/03 09:31:42;;;;;;;34.67;13.00;;;-3.20;99.90;;;;;;4966500;28;20042;-62
2023/12/03 09:34:08;;;;;;;36.13;13.57;;;-2.90;99.90;;;;;;4963462;28;20061;-62
2023/12/03 09:36:34;;;;;;;31.95;12.18;;;-2.70;99.90;;;;;;4952627;29;20107;-62
2023/12/03 09:39:00;;;;;;;32.75;11.82;;;-2.50;99.90;;;;;;4953615;29;20043;-62
2023/12/03 09:41:29;;;;;;;30.98;12.40;;;-2.50;99.90;;;;;;4952674;29;20046;-62
2023/12/03 09:43:59;;;;;;;31.33;12.10;;;-2.60;99.90;;;;;;4960026;28;20034;-62
2023/12/03 09:46:29;;;;;;;36.20;11.63;;;-2.60;99.90;;;;;;4971955;28;20082;-62
2023/12/03 09:48:59;;;;;;;35.40;12.63;;;-2.70;99.90;;;;;;4972707;28;20523;-62
2023/12/03 09:51:26;;;;;;;23.90;9.45;;;-2.80;99.90;;;;;;4964277;28;20401;-62
2023/12/03 09:53:52;;;;;;;34.88;12.75;;;-2.70;99.90;;;;;;4952423;29;20047;-62
2023/12/03 09:56:19;;;;;;;32.80;12.77;;;-2.50;99.90;;;;;;4960918;28;20494;-61
2023/12/03 09:58:45;;;;;;;31.50;12.18;;;-2.40;99.90;;;;;;4952234;29;20729;-62
2023/12/03 10:01:12;;;;;;;34.45;13.02;;;-2.10;99.90;;;;;;4952103;28;20023;-64
2023/12/03 10:03:38;;;;;;;42.88;16.40;;;-1.90;99.90;;;;;;4951550;29;20034;-62
2023/12/03 10:06:04;;;;;;;39.53;14.10;;;-1.60;99.90;;;;;;4951316;29;20106;-62
2023/12/03 10:08:33;;;;;;;36.95;13.75;;;-1.30;99.90;;;;;;4952500;28;20045;-62
2023/12/03 10:11:02;;;;;;;31.77;11.90;;;-1.20;99.90;;;;;;4953477;28;20027;-62
2023/12/03 10:13:29;;;;;;;34.17;12.75;;;-1.20;99.90;;;;;;4952224;28;20100;-64
2023/12/03 10:15:56;;;;;;;34.45;13.48;;;-1.10;99.90;;;;;;4951277;29;20038;-62
2023/12/03 10:18:22;;;;;;;36.17;13.18;;;-1.00;99.90;;;;;;4951426;29;20059;-62
2023/12/03 10:20:47;;;;;;;34.67;13.52;;;-1.20;99.90;;;;;;4952356;29;20038;-62
2023/12/03 10:23:18;;;;;;;40.33;15.65;;;-1.30;99.90;;;;;;4951680;29;20118;-64
2023/12/03 10:25:44;;;;;;;38.75;14.38;;;-1.30;99.90;;;;;;4963400;28;20055;-62
2023/12/03 10:28:10;;;;;;;36.22;14.07;;;-1.30;99.90;;;;;;4978887;28;20419;-63
2023/12/03 10:30:39;;;;;;;33.53;13.23;;;-1.20;99.90;;;;;;4963893;28;20599;-62
2023/12/03 10:33:05;;;;;;;39.17;14.25;;;-0.80;99.90;;;;;;4970556;28;20446;-63
2023/12/03 10:35:35;;;;;;;32.03;12.00;;;-0.60;99.90;;;;;;4970079;28;20031;-62
2023/12/03 10:38:01;;;;;;;;;;;-0.50;99.90;;;;;;4971683;28;20101;-62
2023/12/03 10:40:26;;;;;;;31.08;11.77;;;-0.50;99.90;;;;;;4969645;28;20431;-62
2023/12/03 10:42:52;;;;;;;31.17;12.57;;;-0.60;99.90;;;;;;4970909;28;20090;-62
2023/12/03 10:45:18;;;;;;;32.83;11.77;;;-0.40;99.90;;;;;;4970043;28;20030;-65
2023/12/03 10:47:44;;;;;;;31.25;11.85;;;-0.50;99.90;;;;;;4970739;28;20035;-62
2023/12/03 10:50:12;;;;;;;29.73;11.88;;;-0.50;99.90;;;;;;4971430;28;20468;-63
2023/12/03 10:52:39;;;;;;;31.25;12.35;;;-0.20;99.90;;;;;;4970476;28;20958;-62
2023/12/03 10:55:06;;;;;;;32.88;12.38;;;-0.20;99.90;;;;;;4970337;28;20080;-63
2023/12/03 10:57:38;;;;;;;34.83;13.68;;;-0.50;99.90;;;;;;4970370;28;20038;-63
2023/12/03 11:00:11;;;;;;;33.70;13.48;;;-0.40;99.90;;;;;;4971486;28;20041;-62
2023/12/03 11:02:46;;;;;;;35.72;14.02;;;-0.10;99.90;;;;;;4969906;28;20819;-62
2023/12/03 11:05:23;;;;;;;35.40;13.63;;;0.00;99.90;;;;;;4970864;28;20383;-63
2023/12/03 11:07:49;;;;;;;39.95;14.10;;;0.20;99.90;;;;;;4971445;28;20686;-62
2023/12/03 11:10:15;;;;;;;34.30;13.65;;;0.30;99.90;;;;;;4970259;28;20030;-64
2023/12/03 11:12:42;;;;;;;37.15;14.20;;;0.30;99.90;;;;;;4970085;28;20112;-63
2023/12/03 11:15:09;;;;;;;34.08;13.75;;;0.50;99.90;;;;;;4970682;28;20026;-63
2023/12/03 11:17:41;;;;;;;29.90;12.55;;;0.60;99.90;;;;;;4968300;28;20656;-63
2023/12/03 11:20:09;;;;;;;26.75;11.48;;;0.70;99.90;;;;;;4970198;28;20023;-63
2023/12/03 11:22:40;;;;;;;31.20;12.18;;;0.60;99.90;;;;;;4979909;28;20483;-64
2023/12/03 11:25:12;;;;;;;34.70;13.32;;;0.20;99.90;;;;;;4976176;28;20142;-63
2023/12/03 11:27:45;;;;;;;34.67;13.35;;;0.20;99.90;;;;;;4977382;28;20387;-64
2023/12/03 11:30:12;;;;;;;36.20;12.75;;;0.40;99.90;;;;;;4979668;28;20037;-64
2023/12/03 11:32:38;;;;;;;28.70;12.00;;;0.10;99.90;;;;;;4987796;28;20506;-63
2023/12/03 11:35:12;;;;;;;31.02;11.10;;;-0.10;99.90;;;;;;4975376;28;20061;-63
2023/12/03 11:37:42;;;;;;;26.35;10.43;;;-0.20;99.90;;;;;;4984623;28;20058;-63
2023/12/03 11:40:14;;;;;;;28.77;11.25;;;-0.30;99.90;;;;;;4970790;28;20033;-64
2023/12/03 11:42:43;;;;;;;28.13;10.82;;;-0.30;99.90;;;;;;4959329;28;20135;-63
2023/12/03 11:45:19;;;;;;;29.83;11.67;;;-0.60;99.90;;;;;;4968435;28;20066;-64
2023/12/03 11:48:06;;;;;;;30.33;11.18;;;-0.30;99.90;;;;;;4970453;28;20288;-63
2023/12/03 11:50:39;;;;;;;35.58;12.98;;;-0.40;99.90;;;;;;4980731;28;20027;-63
2023/12/03 11:53:09;;;;;;;30.30;11.80;;;-0.30;99.90;;;;;;4970425;28;20053;-64
2023/12/03 11:55:36;;;;;;;;;;;-0.30;99.90;;;;;;4969797;28;20506;-64
2023/12/03 11:58:04;;;;;;;30.42;11.35;;;-0.20;99.90;;;;;;4969870;28;20449;-64
2023/12/03 12:00:33;;;;;;;31.45;11.95;;;-0.20;99.90;;;;;;4968267;28;20031;-63
2023/12/03 12:03:04;;;;;;;29.98;11.90;;;-0.40;99.90;;;;;;4970463;28;20047;-63
2023/12/03 12:05:31;;;;;;;30.00;12.02;;;-0.40;99.90;;;;;;4969638;28;20041;-64
2023/12/03 12:08:01;;;;;;;31.88;12.23;;;-0.10;99.90;;;;;;4970258;28;20030;-63
2023/12/03 12:10:33;;;;;;;30.88;12.43;;;0.00;99.90;;;;;;4969229;28;20039;-63
2023/12/03 12:13:03;;;;;;;27.70;10.73;;;0.30;99.90;;;;;;4950996;29;20043;-64
2023/12/03 12:15:29;;;;;;;29.95;11.82;;;0.50;99.90;;;;;;4962428;28;20055;-63
2023/12/03 12:17:55;;;;;;;28.35;11.35;;;0.50;99.90;;;;;;4969562;28;20069;-64
2023/12/03 12:20:29;;;;;;;32.55;12.63;;;0.60;99.90;;;;;;4950068;28;20440;-66
2023/12/03 12:22:56;;;;;;;29.95;11.95;;;0.50;99.90;;;;;;4966112;28;20046;-64
2023/12/03 12:25:25;;;;;;;32.53;12.43;;;0.50;99.90;;;;;;4977265;28;20055;-66